createdAt,value
2019-04-05T00:00:35.686Z,5.00
2019-04-05T00:01:21.783Z,4.90
2019-04-05T00:02:09.036Z,4.90
2019-04-05T00:02:55.276Z,4.90
2019-04-05T00:03:41.213Z,5.00
2019-04-05T00:04:27.358Z,4.90
2019-04-05T00:05:14.322Z,4.90
2019-04-05T00:06:00.384Z,4.90
2019-04-05T00:06:47.067Z,4.90
2019-04-05T00:07:33.231Z,4.90
2019-04-05T00:08:19.315Z,4.90
2019-04-05T00:09:05.945Z,4.90
2019-04-05T00:09:52.363Z,4.80
2019-04-05T00:10:38.784Z,4.80
2019-04-05T00:11:24.770Z,4.80
2019-04-05T00:12:11.129Z,4.90
2019-04-05T00:12:56.901Z,4.90
2019-04-05T00:13:43.404Z,4.90
2019-04-05T00:14:29.983Z,4.90
2019-04-05T00:15:16.318Z,4.90
2019-04-05T00:16:12.357Z,4.90
2019-04-05T00:16:59.611Z,5.00
2019-04-05T00:17:46.086Z,5.00
2019-04-05T00:18:32.371Z,5.00
2019-04-05T00:19:18.892Z,5.00
2019-04-05T00:20:06.207Z,5.00
2019-04-05T00:20:52.275Z,5.00
2019-04-05T00:21:38.900Z,5.00
2019-04-05T00:22:25.172Z,5.00
2019-04-05T00:23:11.652Z,5.00
2019-04-05T00:23:58.291Z,5.00
2019-04-05T00:24:44.856Z,5.00
2019-04-05T00:25:31.489Z,5.00
2019-04-05T00:26:17.868Z,5.00
2019-04-05T00:27:04.230Z,5.00
2019-04-05T00:27:50.682Z,5.00
2019-04-05T00:28:37.131Z,5.10
2019-04-05T00:29:23.442Z,5.00
2019-04-05T00:30:10.107Z,5.00
2019-04-05T00:30:56.160Z,5.00
2019-04-05T00:31:42.084Z,5.00
2019-04-05T00:32:28.145Z,5.00
2019-04-05T00:33:14.305Z,4.90
2019-04-05T00:34:00.727Z,4.90
2019-04-05T00:34:47.015Z,4.90
2019-04-05T00:35:32.955Z,4.90
2019-04-05T00:36:19.292Z,5.00
2019-04-05T00:37:05.366Z,5.00
2019-04-05T00:37:51.284Z,4.90
2019-04-05T00:38:37.245Z,4.90
2019-04-05T00:39:23.479Z,4.90
2019-04-05T00:40:10.174Z,4.90
2019-04-05T00:40:56.403Z,4.90
2019-04-05T00:41:42.875Z,4.90
2019-04-05T00:42:29.100Z,4.90
2019-04-05T00:43:15.055Z,4.90
2019-04-05T00:44:01.179Z,4.90
2019-04-05T00:44:47.627Z,4.90
2019-04-05T00:45:33.708Z,4.90
2019-04-05T00:46:19.706Z,4.90
2019-04-05T00:47:05.545Z,4.90
2019-04-05T00:47:51.429Z,4.90
2019-04-05T00:48:37.763Z,4.90
2019-04-05T00:49:24.308Z,4.90
2019-04-05T00:50:11.654Z,4.90
2019-04-05T00:50:57.553Z,5.00
2019-04-05T00:51:43.519Z,5.00
2019-04-05T00:52:30.039Z,5.00
2019-04-05T00:53:16.202Z,4.90
2019-04-05T00:54:02.123Z,4.90
2019-04-05T00:54:48.576Z,4.90
2019-04-05T00:55:34.442Z,4.90
2019-04-05T00:56:20.292Z,4.90
2019-04-05T00:57:06.244Z,4.90
2019-04-05T00:57:52.259Z,4.90
2019-04-05T00:58:38.194Z,4.90
2019-04-05T00:59:24.249Z,4.90
2019-04-05T01:00:11.028Z,4.90
2019-04-05T01:00:57.392Z,5.00
2019-04-05T01:01:43.509Z,5.00
2019-04-05T01:02:30.250Z,5.00
2019-04-05T01:03:16.536Z,5.00
2019-04-05T01:04:02.563Z,5.00
2019-04-05T01:04:49.258Z,5.00
2019-04-05T01:05:35.581Z,5.00
2019-04-05T01:06:21.579Z,5.10
2019-04-05T01:07:07.832Z,5.00
2019-04-05T01:07:54.143Z,5.00
2019-04-05T01:08:40.004Z,5.00
2019-04-05T01:09:26.012Z,5.00
2019-04-05T01:10:12.555Z,5.00
2019-04-05T01:10:58.846Z,4.90
2019-04-05T01:11:45.028Z,5.00
2019-04-05T01:12:32.231Z,5.00
2019-04-05T01:13:19.574Z,4.90
2019-04-05T01:14:05.747Z,4.90
2019-04-05T01:14:53.078Z,4.90
2019-04-05T01:15:41.204Z,4.90
2019-04-05T01:16:27.081Z,4.90
2019-04-05T01:17:24.353Z,4.90
2019-04-05T01:18:03.578Z,4.90
2019-04-05T01:18:50.139Z,4.90
2019-04-05T01:19:39.850Z,4.90
2019-04-05T01:20:30.886Z,4.90
2019-04-05T01:21:19.661Z,4.90
2019-04-05T01:22:06.868Z,4.90
2019-04-05T01:22:53.999Z,5.00
2019-04-05T01:23:39.895Z,5.00
2019-04-05T01:24:25.811Z,4.90
2019-04-05T01:25:11.724Z,5.00
2019-04-05T01:26:00.485Z,4.90
2019-04-05T01:26:48.159Z,4.90
2019-04-05T01:27:36.318Z,4.90
2019-04-05T01:28:23.428Z,4.90
2019-04-05T01:29:09.649Z,4.90
2019-04-05T01:29:55.559Z,4.90
2019-04-05T01:30:41.448Z,4.90
2019-04-05T01:31:27.406Z,4.90
2019-04-05T01:32:13.319Z,4.90
2019-04-05T01:32:59.337Z,4.90
2019-04-05T01:33:45.370Z,4.90
2019-04-05T01:34:32.004Z,4.90
2019-04-05T01:35:18.214Z,4.90
2019-04-05T01:36:04.615Z,4.90
2019-04-05T01:36:50.783Z,4.90
2019-04-05T01:37:37.318Z,4.90
2019-04-05T01:38:23.436Z,4.90
2019-04-05T01:39:09.344Z,4.90
2019-04-05T01:39:56.200Z,4.90
2019-04-05T01:40:45.220Z,4.90
2019-04-05T01:41:30.946Z,5.00
2019-04-05T01:42:17.102Z,5.00
2019-04-05T01:43:03.398Z,4.90
2019-04-05T01:43:49.931Z,4.90
2019-04-05T01:44:36.720Z,4.90
2019-04-05T01:45:22.563Z,4.90
2019-04-05T01:46:08.873Z,4.90
2019-04-05T01:46:54.717Z,4.90
2019-04-05T01:47:40.544Z,4.90
2019-04-05T01:48:26.850Z,5.00
2019-04-05T01:49:14.088Z,5.00
2019-04-05T01:50:01.304Z,5.00
2019-04-05T01:50:47.703Z,5.00
2019-04-05T01:51:33.615Z,5.00
2019-04-05T01:52:20.791Z,5.00
2019-04-05T01:53:06.904Z,5.00
2019-04-05T01:53:52.791Z,5.10
2019-04-05T01:54:39.208Z,5.00
2019-04-05T01:55:28.689Z,5.00
2019-04-05T01:56:14.500Z,5.00
2019-04-05T01:57:00.418Z,5.10
2019-04-05T01:57:46.831Z,5.00
2019-04-05T01:58:32.750Z,5.10
2019-04-05T01:59:18.813Z,5.10
2019-04-05T02:00:06.769Z,5.00
2019-04-05T02:00:52.784Z,5.00
2019-04-05T02:01:38.770Z,5.10
2019-04-05T02:02:24.703Z,5.10
2019-04-05T02:03:10.967Z,5.10
2019-04-05T02:03:57.492Z,5.10
2019-04-05T02:04:43.561Z,5.00
2019-04-05T02:05:29.553Z,5.00
2019-04-05T02:06:15.482Z,5.00
2019-04-05T02:07:01.839Z,5.00
2019-04-05T02:07:48.401Z,5.00
2019-04-05T02:08:35.183Z,5.00
2019-04-05T02:09:21.407Z,5.00
2019-04-05T02:10:08.151Z,5.00
2019-04-05T02:10:54.889Z,5.00
2019-04-05T02:11:40.790Z,5.00
2019-04-05T02:12:26.836Z,4.90
2019-04-05T02:13:12.940Z,5.00
2019-04-05T02:14:00.191Z,5.00
2019-04-05T02:14:47.754Z,5.00
2019-04-05T02:15:37.143Z,5.00
2019-04-05T02:16:23.263Z,5.00
2019-04-05T02:17:09.312Z,5.00
2019-04-05T02:17:56.056Z,5.00
2019-04-05T02:18:51.168Z,4.90
2019-04-05T02:19:37.584Z,5.00
2019-04-05T02:20:23.782Z,5.00
2019-04-05T02:21:10.059Z,5.00
2019-04-05T02:22:10.738Z,4.90
2019-04-05T02:27:44.619Z,5.00
2019-04-05T02:28:30.476Z,5.00
2019-04-05T02:29:16.439Z,5.00
2019-04-05T02:30:02.466Z,5.00
2019-04-05T02:30:48.437Z,5.00
2019-04-05T02:33:59.761Z,5.00
2019-04-05T02:36:37.875Z,5.00
2019-04-05T02:37:23.964Z,5.00
2019-04-05T02:38:10.396Z,5.00
2019-04-05T02:38:56.362Z,5.00
2019-04-05T02:41:40.107Z,5.00
2019-04-05T02:42:26.314Z,5.00
2019-04-05T02:43:14.945Z,5.00
2019-04-05T02:44:00.989Z,5.10
2019-04-05T02:44:48.207Z,5.10
2019-04-05T02:45:37.934Z,5.10
2019-04-05T02:46:25.449Z,5.10
2019-04-05T02:47:12.650Z,5.10
2019-04-05T02:48:02.662Z,5.10
2019-04-05T02:48:49.714Z,5.10
2019-04-05T02:49:36.208Z,5.10
2019-04-05T02:50:25.964Z,5.10
2019-04-05T02:51:15.358Z,5.10
2019-04-05T02:52:03.039Z,5.10
2019-04-05T02:52:52.853Z,5.10
2019-04-05T02:53:40.592Z,5.10
2019-04-05T02:54:27.911Z,5.10
2019-04-05T02:55:14.480Z,5.10
2019-04-05T02:56:03.247Z,5.10
2019-04-05T02:56:50.305Z,5.10
2019-04-05T02:57:36.995Z,5.10
2019-04-05T02:58:23.856Z,5.10
2019-04-05T02:59:10.630Z,5.10
2019-04-05T02:59:57.099Z,5.10
2019-04-05T03:00:44.160Z,5.10
2019-04-05T03:01:32.176Z,5.10
2019-04-05T03:02:18.687Z,5.10
2019-04-05T03:03:05.262Z,5.10
2019-04-05T03:03:51.881Z,5.10
2019-04-05T03:04:38.363Z,5.10
2019-04-05T03:05:24.688Z,5.10
2019-04-05T03:06:10.909Z,5.20
2019-04-05T03:06:57.787Z,5.10
2019-04-05T03:07:43.903Z,5.10
2019-04-05T03:08:30.500Z,5.10
2019-04-05T03:09:18.211Z,5.10
2019-04-05T03:10:05.062Z,5.10
2019-04-05T03:11:16.998Z,5.10
2019-04-05T03:12:03.240Z,5.10
2019-04-05T03:12:49.366Z,5.20
2019-04-05T03:13:43.865Z,5.10
2019-04-05T03:14:30.762Z,5.20
2019-04-05T03:15:16.853Z,5.10
2019-04-05T03:16:07.563Z,5.20
2019-04-05T03:16:54.927Z,5.20
2019-04-05T03:17:40.957Z,5.20
2019-04-05T03:18:29.090Z,5.20
2019-04-05T03:19:19.985Z,5.20
2019-04-05T03:20:08.134Z,5.20
2019-04-05T03:20:57.930Z,5.20
2019-04-05T03:21:49.730Z,5.20
2019-04-05T03:22:36.067Z,5.20
2019-04-05T03:23:22.582Z,5.20
2019-04-05T03:24:13.658Z,5.20
2019-04-05T03:25:00.336Z,5.20
2019-04-05T03:25:48.334Z,5.20
2019-04-05T03:26:38.160Z,5.20
2019-04-05T03:27:28.966Z,5.20
2019-04-05T03:28:18.242Z,5.20
2019-04-05T03:29:07.869Z,5.20
2019-04-05T03:29:54.767Z,5.20
2019-04-05T03:30:41.434Z,5.10
2019-04-05T03:31:28.191Z,5.10
2019-04-05T03:32:15.252Z,5.20
2019-04-05T03:33:01.833Z,5.20
2019-04-05T03:33:48.684Z,5.20
2019-04-05T03:34:35.739Z,5.20
2019-04-05T03:35:22.443Z,5.20
2019-04-05T03:36:09.064Z,5.20
2019-04-05T03:36:55.595Z,5.20
2019-04-05T03:37:41.933Z,5.20
2019-04-05T03:38:28.201Z,5.20
2019-04-05T03:39:14.839Z,5.20
2019-04-05T03:40:01.116Z,5.20
2019-04-05T03:40:47.132Z,5.20
2019-04-05T03:41:33.988Z,5.20
2019-04-05T03:42:19.887Z,5.30
2019-04-05T03:43:05.735Z,5.30
2019-04-05T03:43:51.631Z,5.30
2019-04-05T03:44:37.891Z,5.30
2019-04-05T03:45:23.829Z,5.30
2019-04-05T03:46:10.293Z,5.30
2019-04-05T03:46:57.864Z,5.30
2019-04-05T03:47:44.424Z,5.30
2019-04-05T03:48:30.322Z,5.30
2019-04-05T03:49:16.840Z,5.30
2019-04-05T03:50:03.499Z,5.30
2019-04-05T03:50:49.831Z,5.30
2019-04-05T03:51:35.888Z,5.30
2019-04-05T03:52:22.181Z,5.30
2019-04-05T03:53:08.402Z,5.30
2019-04-05T03:53:56.149Z,5.30
2019-04-05T03:54:42.312Z,5.30
2019-04-05T03:55:28.632Z,5.30
2019-04-05T03:56:15.524Z,5.30
2019-04-05T03:57:01.428Z,5.30
2019-04-05T03:57:48.033Z,5.30
2019-04-05T03:58:35.637Z,5.30
2019-04-05T03:59:23.868Z,5.30
2019-04-05T04:00:10.381Z,5.30
2019-04-05T04:00:56.944Z,5.30
2019-04-05T04:01:43.128Z,5.30
2019-04-05T04:02:29.214Z,5.30
2019-04-05T04:03:15.188Z,5.30
2019-04-05T04:04:01.670Z,5.30
2019-04-05T04:04:47.864Z,5.30
2019-04-05T04:05:34.555Z,5.30
2019-04-05T04:06:21.401Z,5.30
2019-04-05T04:07:08.182Z,5.30
2019-04-05T04:07:54.513Z,5.30
2019-04-05T04:08:40.618Z,5.30
2019-04-05T04:09:27.328Z,5.30
2019-04-05T04:10:16.341Z,5.20
2019-04-05T04:11:02.990Z,5.20
2019-04-05T04:11:48.984Z,5.20
2019-04-05T04:12:35.098Z,5.20
2019-04-05T04:13:21.401Z,5.20
2019-04-05T04:14:08.621Z,5.20
2019-04-05T04:14:56.641Z,5.20
2019-04-05T04:15:43.141Z,5.20
2019-04-05T04:16:29.759Z,5.20
2019-04-05T04:17:15.859Z,5.20
2019-04-05T04:18:02.662Z,5.30
2019-04-05T04:18:49.267Z,5.30
2019-04-05T04:19:36.206Z,5.30
2019-04-05T04:20:44.836Z,5.30
2019-04-05T04:21:44.600Z,5.30
2019-04-05T04:22:31.085Z,5.30
2019-04-05T04:23:18.044Z,5.20
2019-04-05T04:24:04.463Z,5.30
2019-04-05T04:24:51.189Z,5.30
2019-04-05T04:25:38.861Z,5.30
2019-04-05T04:26:26.879Z,5.30
2019-04-05T04:27:13.012Z,5.30
2019-04-05T04:27:59.385Z,5.30
2019-04-05T04:28:45.792Z,5.30
2019-04-05T04:29:32.462Z,5.30
2019-04-05T04:30:18.785Z,5.30
2019-04-05T04:31:05.664Z,5.30
2019-04-05T04:31:52.536Z,5.30
2019-04-05T04:32:38.845Z,5.30
2019-04-05T04:33:25.322Z,5.30
2019-04-05T04:34:12.201Z,5.30
2019-04-05T04:34:58.481Z,5.30
2019-04-05T04:35:45.239Z,5.30
2019-04-05T04:36:31.973Z,5.30
2019-04-05T04:37:18.196Z,5.30
2019-04-05T04:38:05.659Z,5.30
2019-04-05T04:38:52.099Z,5.40
2019-04-05T04:39:38.331Z,5.40
2019-04-05T04:40:25.461Z,5.30
2019-04-05T04:41:13.387Z,5.30
2019-04-05T04:42:00.741Z,5.30
2019-04-05T04:42:47.134Z,5.30
2019-04-05T04:43:35.869Z,5.30
2019-04-05T04:44:22.468Z,5.30
2019-04-05T04:45:12.506Z,5.30
2019-04-05T04:45:57.719Z,5.30
2019-04-05T04:46:47.936Z,5.30
2019-04-05T04:47:32.905Z,5.30
2019-04-05T04:48:19.357Z,5.30
2019-04-05T04:49:05.881Z,5.40
2019-04-05T04:49:55.379Z,5.40
2019-04-05T04:50:41.625Z,5.40
2019-04-05T04:51:28.460Z,5.30
2019-04-05T04:52:15.361Z,5.40
2019-04-05T04:53:01.849Z,5.30
2019-04-05T04:53:48.408Z,5.30
2019-04-05T04:54:34.596Z,5.30
2019-04-05T04:55:20.762Z,5.30
2019-04-05T04:56:07.286Z,5.30
2019-04-05T04:56:54.071Z,5.30
2019-04-05T04:57:40.318Z,5.30
2019-04-05T04:58:27.056Z,5.30
2019-04-05T04:59:13.724Z,5.30
2019-04-05T05:00:00.355Z,5.30
2019-04-05T05:00:46.840Z,5.30
2019-04-05T05:01:33.571Z,5.30
2019-04-05T05:02:20.461Z,5.30
2019-04-05T05:03:06.895Z,5.30
2019-04-05T05:03:53.576Z,5.30
2019-04-05T05:04:40.176Z,5.30
2019-04-05T05:05:26.772Z,5.30
2019-04-05T05:06:13.388Z,5.30
2019-04-05T05:06:59.731Z,5.30
2019-04-05T05:07:46.479Z,5.30
2019-04-05T05:08:32.905Z,5.30
2019-04-05T05:09:19.328Z,5.30
2019-04-05T05:10:05.290Z,5.30
2019-04-05T05:10:51.708Z,5.30
2019-04-05T05:11:37.865Z,5.30
2019-04-05T05:12:24.448Z,5.20
2019-04-05T05:13:10.687Z,5.20
2019-04-05T05:13:57.022Z,5.20
2019-04-05T05:14:43.938Z,5.20
2019-04-05T05:15:30.191Z,5.20
2019-04-05T05:16:16.378Z,5.20
2019-04-05T05:17:02.619Z,5.20
2019-04-05T05:17:58.516Z,5.20
2019-04-05T05:18:37.939Z,5.20
2019-04-05T05:19:24.215Z,5.20
2019-04-05T05:20:10.655Z,5.20
2019-04-05T05:20:56.803Z,5.20
2019-04-05T05:21:43.130Z,5.20
2019-04-05T05:22:29.408Z,5.10
2019-04-05T05:23:15.704Z,5.20
2019-04-05T05:24:02.449Z,5.20
2019-04-05T05:24:48.996Z,5.10
2019-04-05T05:25:34.993Z,5.10
2019-04-05T05:26:21.777Z,5.10
2019-04-05T05:27:08.153Z,5.10
2019-04-05T05:27:54.631Z,5.10
2019-04-05T05:28:41.215Z,5.10
2019-04-05T05:29:27.711Z,5.10
2019-04-05T05:30:14.898Z,5.10
2019-04-05T05:31:01.177Z,5.10
2019-04-05T05:31:47.484Z,5.20
2019-04-05T05:32:33.990Z,5.20
2019-04-05T05:33:20.421Z,5.20
2019-04-05T05:34:07.027Z,5.20
2019-04-05T05:35:01.957Z,5.20
2019-04-05T05:35:42.474Z,5.20
2019-04-05T05:36:29.004Z,5.20
2019-04-05T05:37:15.586Z,5.30
2019-04-05T05:38:02.022Z,5.30
2019-04-05T05:38:48.594Z,5.30
2019-04-05T05:39:34.784Z,5.30
2019-04-05T05:40:33.793Z,5.30
2019-04-05T05:41:09.793Z,5.30
2019-04-05T05:41:56.199Z,5.30
2019-04-05T05:42:42.280Z,5.40
2019-04-05T05:43:28.980Z,5.40
2019-04-05T05:44:15.568Z,5.40
2019-04-05T05:45:01.849Z,5.40
2019-04-05T05:45:48.274Z,5.40
2019-04-05T05:46:34.839Z,5.40
2019-04-05T05:47:21.426Z,5.40
2019-04-05T05:48:08.167Z,5.40
2019-04-05T05:48:54.440Z,5.40
2019-04-05T05:49:40.860Z,5.40
2019-04-05T05:50:26.696Z,5.40
2019-04-05T05:51:13.531Z,5.50
2019-04-05T05:51:59.987Z,5.40
2019-04-05T05:52:48.159Z,5.40
2019-04-05T05:53:33.886Z,5.40
2019-04-05T05:54:19.759Z,5.40
2019-04-05T05:55:05.777Z,5.40
2019-04-05T05:55:51.979Z,5.40
2019-04-05T05:56:38.371Z,5.40
2019-04-05T05:57:24.854Z,5.40
2019-04-05T05:58:11.159Z,5.40
2019-04-05T05:58:59.558Z,5.40
2019-04-05T05:59:58.475Z,5.40
2019-04-05T06:00:44.727Z,5.40
2019-04-05T06:01:30.626Z,5.40
2019-04-05T06:02:16.570Z,5.50
2019-04-05T06:03:02.534Z,5.50
2019-04-05T06:03:48.437Z,5.50
2019-04-05T06:04:34.528Z,5.50
2019-04-05T06:05:20.647Z,5.50
2019-04-05T06:06:07.334Z,5.60
2019-04-05T06:06:53.367Z,5.60
2019-04-05T06:07:39.362Z,5.70
2019-04-05T06:08:27.760Z,5.70
2019-04-05T06:09:13.739Z,5.70
2019-04-05T06:10:00.247Z,5.70
2019-04-05T06:10:46.239Z,5.80
2019-04-05T06:11:32.637Z,5.90
2019-04-05T06:12:18.492Z,5.90
2019-04-05T06:13:06.814Z,5.90
2019-04-05T06:13:52.391Z,5.90
2019-04-05T06:14:38.295Z,5.90
2019-04-05T06:15:24.746Z,6.00
2019-04-05T06:16:10.704Z,6.00
2019-04-05T06:16:57.019Z,6.00
2019-04-05T06:17:43.262Z,6.10
2019-04-05T06:18:29.208Z,6.00
2019-04-05T06:19:15.214Z,6.00
2019-04-05T06:20:03.483Z,6.10
2019-04-05T06:20:49.753Z,6.10
2019-04-05T06:21:35.790Z,6.10
2019-04-05T06:22:21.743Z,6.10
2019-04-05T06:23:08.192Z,6.20
2019-04-05T06:23:54.160Z,6.20
2019-04-05T06:24:40.489Z,6.20
2019-04-05T06:25:26.505Z,6.20
2019-04-05T06:26:12.503Z,6.20
2019-04-05T06:26:58.666Z,6.30
2019-04-05T06:27:45.251Z,6.40
2019-04-05T06:28:32.082Z,6.50
2019-04-05T06:29:18.615Z,6.50
2019-04-05T06:30:05.483Z,6.50
2019-04-05T06:30:51.737Z,6.60
2019-04-05T06:31:46.400Z,6.60
2019-04-05T06:32:32.735Z,6.70
2019-04-05T06:33:30.913Z,6.70
2019-04-05T06:34:06.514Z,6.70
2019-04-05T06:34:52.454Z,6.80
2019-04-05T06:35:40.395Z,6.80
2019-04-05T06:36:26.563Z,6.80
2019-04-05T06:37:12.478Z,6.80
2019-04-05T06:37:58.358Z,6.80
2019-04-05T06:38:44.303Z,6.90
2019-04-05T06:39:30.271Z,6.90
2019-04-05T06:40:16.245Z,7.00
2019-04-05T06:41:02.488Z,7.00
2019-04-05T06:41:48.502Z,7.00
2019-04-05T06:42:34.564Z,6.90
2019-04-05T06:43:21.312Z,7.00
2019-04-05T06:44:07.358Z,7.00
2019-04-05T06:44:53.329Z,7.00
2019-04-05T06:45:39.131Z,7.00
2019-04-05T06:46:24.990Z,7.10
2019-04-05T06:47:10.875Z,7.10
2019-04-05T06:47:56.846Z,7.10
2019-04-05T06:48:44.446Z,7.00
2019-04-05T06:49:31.119Z,7.10
2019-04-05T06:50:16.938Z,7.10
2019-04-05T06:51:02.914Z,7.10
2019-04-05T06:51:50.604Z,7.20
2019-04-05T06:52:37.000Z,7.30
2019-04-05T06:53:22.956Z,7.30
2019-04-05T06:54:08.854Z,7.40
2019-04-05T06:54:55.181Z,7.40
2019-04-05T06:55:41.164Z,7.40
2019-04-05T06:56:27.048Z,7.50
2019-04-05T06:57:13.453Z,7.50
2019-04-05T06:57:59.355Z,7.60
2019-04-05T06:58:46.475Z,7.60
2019-04-05T06:59:32.853Z,7.70
2019-04-05T07:00:27.062Z,7.70
2019-04-05T07:01:13.376Z,7.70
2019-04-05T07:01:59.178Z,7.80
2019-04-05T07:02:45.008Z,7.70
2019-04-05T07:03:30.871Z,7.70
2019-04-05T07:04:16.785Z,7.70
2019-04-05T07:05:02.916Z,7.70
2019-04-05T07:05:49.189Z,7.80
2019-04-05T07:06:55.363Z,7.80
2019-04-05T07:07:41.535Z,7.90
2019-04-05T07:08:28.188Z,8.00
2019-04-05T07:09:14.553Z,7.90
2019-04-05T07:10:01.233Z,8.00
2019-04-05T07:10:47.583Z,8.10
2019-04-05T07:11:33.942Z,8.20
2019-04-05T07:12:20.888Z,8.30
2019-04-05T07:13:07.672Z,8.40
2019-04-05T07:13:54.031Z,8.40
2019-04-05T07:14:40.125Z,8.50
2019-04-05T07:15:26.514Z,8.60
2019-04-05T07:16:12.564Z,8.60
2019-04-05T07:16:59.094Z,8.80
2019-04-05T07:17:45.803Z,8.90
2019-04-05T07:18:36.027Z,8.90
2019-04-05T07:19:20.187Z,9.00
2019-04-05T07:20:06.814Z,9.00
2019-04-05T07:20:53.172Z,9.10
2019-04-05T07:21:39.767Z,9.10
2019-04-05T07:22:36.918Z,9.20
2019-04-05T07:23:14.279Z,9.40
2019-04-05T07:24:00.535Z,9.50
2019-04-05T07:24:49.411Z,10.00
2019-04-05T07:25:35.276Z,11.20
2019-04-05T07:26:21.737Z,12.70
2019-04-05T07:27:08.220Z,12.80
2019-04-05T07:27:54.342Z,12.40
2019-04-05T07:28:40.800Z,12.10
2019-04-05T07:29:27.231Z,12.10
2019-04-05T07:30:14.377Z,13.10
2019-04-05T07:31:01.164Z,13.20
2019-04-05T07:31:47.750Z,13.60
2019-04-05T07:32:34.340Z,13.40
2019-04-05T07:33:20.901Z,13.00
2019-04-05T07:34:06.967Z,12.70
2019-04-05T07:34:52.906Z,12.40
2019-04-05T07:35:38.719Z,12.10
2019-04-05T07:36:24.707Z,11.90
2019-04-05T07:37:10.924Z,11.80
2019-04-05T07:37:57.119Z,11.80
2019-04-05T07:38:43.633Z,11.80
2019-04-05T07:39:29.816Z,11.60
2019-04-05T07:40:16.039Z,11.30
2019-04-05T07:41:02.221Z,11.10
2019-04-05T07:41:48.258Z,11.30
2019-04-05T07:42:35.342Z,11.20
2019-04-05T07:43:21.555Z,11.20
2019-04-05T07:44:41.553Z,11.30
2019-04-05T07:45:27.483Z,11.20
2019-04-05T07:46:13.758Z,11.40
2019-04-05T07:46:59.631Z,11.60
2019-04-05T07:47:45.585Z,11.50
2019-04-05T07:48:43.773Z,12.00
2019-04-05T07:49:19.832Z,12.10
2019-04-05T07:50:07.419Z,12.40
2019-04-05T07:50:53.421Z,12.40
2019-04-05T07:51:39.844Z,12.30
2019-04-05T07:52:25.819Z,12.20
2019-04-05T07:53:12.070Z,12.00
2019-04-05T07:53:57.923Z,11.90
2019-04-05T07:54:43.856Z,11.90
2019-04-05T07:55:29.790Z,12.90
2019-04-05T07:56:15.784Z,13.30
2019-04-05T07:57:01.852Z,13.80
2019-04-05T07:57:47.965Z,14.50
2019-04-05T07:58:34.091Z,15.10
2019-04-05T07:59:21.122Z,15.60
2019-04-05T08:00:09.702Z,16.20
2019-04-05T08:00:56.131Z,16.70
2019-04-05T08:01:42.582Z,17.00
2019-04-05T08:02:29.992Z,18.00
2019-04-05T08:03:17.022Z,18.90
2019-04-05T08:04:03.568Z,19.90
2019-04-05T08:04:50.043Z,20.70
2019-04-05T08:05:36.801Z,21.70
2019-04-05T08:06:23.231Z,21.70
2019-04-05T08:07:10.251Z,20.60
2019-04-05T08:07:56.976Z,19.50
2019-04-05T08:09:07.721Z,19.40
2019-04-05T08:09:54.266Z,19.60
2019-04-05T08:10:41.780Z,19.50
2019-04-05T08:11:28.532Z,18.00
2019-04-05T08:12:14.907Z,16.70
2019-04-05T08:13:02.739Z,17.00
2019-04-05T08:13:50.942Z,17.10
2019-04-05T08:14:38.990Z,16.70
2019-04-05T08:15:25.401Z,16.10
2019-04-05T08:16:11.919Z,15.60
2019-04-05T08:16:58.334Z,15.40
2019-04-05T08:17:44.303Z,15.20
2019-04-05T08:18:30.088Z,15.20
2019-04-05T08:20:29.990Z,15.00
2019-04-05T08:21:16.011Z,15.20
2019-04-05T08:22:02.103Z,15.50
2019-04-05T08:22:48.255Z,15.80
2019-04-05T08:23:34.956Z,15.90
2019-04-05T08:24:20.974Z,16.20
2019-04-05T08:25:07.152Z,16.20
2019-04-05T08:25:53.306Z,15.90
2019-04-05T08:26:39.628Z,15.70
2019-04-05T08:27:25.976Z,15.50
2019-04-05T08:28:11.820Z,15.40
2019-04-05T08:28:57.735Z,15.40
2019-04-05T08:29:43.573Z,15.30
2019-04-05T08:30:29.446Z,15.50
2019-04-05T08:31:15.453Z,15.50
2019-04-05T08:32:13.902Z,15.20
2019-04-05T08:32:49.769Z,15.00
2019-04-05T08:33:38.899Z,15.00
2019-04-05T08:34:25.244Z,15.00
2019-04-05T08:35:11.658Z,15.20
2019-04-05T08:35:57.551Z,15.30
2019-04-05T08:36:43.631Z,15.40
2019-04-05T08:37:29.954Z,15.40
2019-04-05T08:38:16.140Z,15.10
2019-04-05T08:39:02.062Z,15.20
2019-04-05T08:39:49.655Z,15.10
2019-04-05T08:40:36.076Z,14.90
2019-04-05T08:41:23.511Z,14.60
2019-04-05T08:42:11.008Z,14.50
2019-04-05T08:42:57.116Z,14.80
2019-04-05T08:43:43.589Z,15.00
2019-04-05T08:44:29.520Z,14.90
2019-04-05T08:45:15.390Z,14.60
2019-04-05T08:46:01.768Z,14.40
2019-04-05T08:46:47.673Z,14.20
2019-04-05T08:47:33.838Z,14.10
2019-04-05T08:48:20.358Z,13.80
2019-04-05T08:49:10.894Z,13.70
2019-04-05T08:49:54.531Z,13.50
2019-04-05T08:50:40.571Z,13.50
2019-04-05T08:51:27.158Z,13.50
2019-04-05T08:52:13.179Z,13.40
2019-04-05T08:52:59.272Z,13.30
2019-04-05T08:53:45.819Z,13.30
2019-04-05T08:54:33.323Z,13.20
2019-04-05T08:55:19.615Z,13.30
2019-04-05T08:56:05.504Z,13.30
2019-04-05T08:56:51.947Z,13.80
2019-04-05T08:57:37.825Z,13.80
2019-04-05T08:58:33.279Z,13.70
2019-04-05T08:59:11.619Z,13.50
2019-04-05T08:59:57.435Z,13.30
2019-04-05T09:00:43.583Z,13.10
2019-04-05T09:02:06.957Z,13.00
2019-04-05T09:02:53.085Z,13.10
2019-04-05T09:03:50.538Z,13.00
2019-04-05T09:09:06.968Z,13.10
2019-04-05T09:09:53.496Z,13.50
2019-04-05T09:10:39.854Z,14.60
2019-04-05T09:11:26.251Z,14.50
2019-04-05T09:12:12.648Z,14.80
2019-04-05T09:12:58.609Z,14.90
2019-04-05T09:13:44.863Z,15.10
2019-04-05T09:14:30.836Z,14.80
2019-04-05T09:15:16.777Z,14.90
2019-04-05T09:16:02.682Z,15.00
2019-04-05T09:16:48.616Z,15.50
2019-04-05T09:17:34.453Z,15.50
2019-04-05T09:18:20.356Z,15.20
2019-04-05T09:19:06.234Z,14.80
2019-04-05T09:19:53.968Z,14.50
2019-04-05T09:20:40.167Z,14.30
2019-04-05T09:21:26.091Z,14.00
2019-04-05T09:22:12.532Z,13.80
2019-04-05T09:22:58.599Z,13.60
2019-04-05T09:23:44.726Z,13.30
2019-04-05T09:24:31.161Z,13.00
2019-04-05T09:25:19.810Z,12.90
2019-04-05T09:26:07.129Z,12.90
2019-04-05T09:26:54.365Z,12.70
2019-04-05T09:27:41.175Z,12.50
2019-04-05T09:28:27.315Z,12.50
2019-04-05T09:29:13.753Z,12.20
2019-04-05T09:29:59.931Z,12.20
2019-04-05T09:30:46.067Z,12.10
2019-04-05T09:31:32.778Z,12.00
2019-04-05T09:32:19.887Z,11.90
2019-04-05T09:33:07.465Z,12.00
2019-04-05T09:33:54.183Z,12.10
2019-04-05T09:34:40.798Z,12.00
2019-04-05T09:35:27.022Z,11.90
2019-04-05T09:36:13.013Z,11.90
2019-04-05T09:36:59.035Z,11.90
2019-04-05T09:37:44.949Z,12.00
2019-04-05T09:38:30.839Z,12.10
2019-04-05T09:39:17.154Z,12.10
2019-04-05T09:40:03.807Z,12.10
2019-04-05T09:40:49.835Z,12.10
2019-04-05T09:41:35.803Z,12.10
2019-04-05T09:42:22.017Z,12.10
2019-04-05T09:43:07.836Z,12.00
2019-04-05T09:43:54.887Z,11.80
2019-04-05T09:44:41.568Z,11.90
2019-04-05T09:45:27.743Z,11.80
2019-04-05T09:46:13.644Z,11.80
2019-04-05T09:46:59.612Z,12.00
2019-04-05T09:47:46.043Z,11.80
2019-04-05T09:48:31.995Z,11.70
2019-04-05T09:49:18.304Z,11.60
2019-04-05T09:50:04.711Z,11.60
2019-04-05T09:50:50.864Z,11.50
2019-04-05T09:51:37.610Z,11.50
2019-04-05T09:52:24.269Z,11.40
2019-04-05T09:53:10.740Z,11.50
2019-04-05T09:53:56.931Z,11.30
2019-04-05T09:54:43.041Z,11.40
2019-04-05T09:55:29.157Z,11.20
2019-04-05T09:56:15.198Z,11.20
2019-04-05T09:57:01.087Z,11.20
2019-04-05T09:57:46.987Z,11.40
2019-04-05T09:58:33.005Z,11.40
2019-04-05T09:59:19.174Z,11.40
2019-04-05T10:00:08.189Z,11.40
2019-04-05T10:00:54.105Z,11.60
2019-04-05T10:01:40.428Z,11.60
2019-04-05T10:02:26.346Z,11.80
2019-04-05T10:03:12.306Z,11.80
2019-04-05T10:03:58.387Z,12.00
2019-04-05T10:04:44.413Z,11.90
2019-04-05T10:05:32.547Z,11.90
2019-04-05T10:06:18.924Z,11.80
2019-04-05T10:07:05.125Z,11.60
2019-04-05T10:07:55.212Z,11.50
2019-04-05T10:08:39.453Z,11.60
2019-04-05T10:09:25.507Z,11.40
2019-04-05T10:10:11.586Z,11.40
2019-04-05T10:10:59.803Z,11.40
2019-04-05T10:11:45.731Z,11.40
2019-04-05T10:12:32.679Z,11.50
2019-04-05T10:13:18.983Z,11.50
2019-04-05T10:14:05.064Z,11.60
2019-04-05T10:14:51.395Z,11.70
2019-04-05T10:15:37.799Z,11.70
2019-04-05T10:16:23.777Z,11.70
2019-04-05T10:17:09.797Z,11.80
2019-04-05T10:17:56.236Z,11.80
2019-04-05T10:18:43.567Z,11.70
2019-04-05T10:19:29.996Z,11.80
2019-04-05T10:20:16.374Z,11.70
2019-04-05T10:21:02.836Z,11.80
2019-04-05T10:21:50.566Z,11.70
2019-04-05T10:22:36.910Z,11.80
2019-04-05T10:23:24.270Z,11.70
2019-04-05T10:24:10.609Z,11.70
2019-04-05T10:24:56.783Z,11.60
2019-04-05T10:25:44.130Z,11.40
2019-04-05T10:26:30.527Z,11.30
2019-04-05T10:27:18.251Z,11.40
2019-04-05T10:28:04.849Z,11.40
2019-04-05T10:28:50.898Z,11.40
2019-04-05T10:29:37.648Z,11.30
2019-04-05T10:30:25.173Z,11.30
2019-04-05T10:31:11.543Z,11.40
2019-04-05T10:31:58.111Z,11.40
2019-04-05T10:32:46.254Z,11.50
2019-04-05T10:33:33.169Z,11.40
2019-04-05T10:34:19.709Z,11.40
2019-04-05T10:35:06.470Z,11.50